Time;durP1;ratioP1;P1;durP2;ratioP2;P2;SDS_P1;SDS_P2;PMS_P1;PMS_P2;Temp;Humidity;BMP_temperature;BMP_pressure;BME280_temperature;BME280_humidity;BME280_pressure;Samples;Min_cycle;Max_cycle;Signal;HPM_P1;HPM_P2
2021/12/17 00:00:32;;;;;;;;;;;;;;;14.40;58.32;102845.72;5015732;28;6878;-72
2021/12/17 00:05:42;;;;;;;;;;;;;;;14.38;59.28;102842.13;5007522;28;6804;-72
2021/12/17 00:08:08;;;;;;;;;;;;;;;14.37;58.78;102845.47;4982188;28;7417;-72
2021/12/17 00:10:34;;;;;;;;;;;;;;;14.33;58.58;102839.19;5015148;28;6870;-72
2021/12/17 00:13:00;;;;;;;;;;;;;;;14.33;58.57;102838.31;5014537;28;6969;-72
2021/12/17 00:15:25;;;;;;;;;;;;;;;14.32;59.31;102852.00;4997180;28;6967;-72
2021/12/17 00:17:58;;;;;;;;;;;;;;;14.30;58.61;102850.22;5016046;28;6780;-72
2021/12/17 00:53:05;;;;;;;;;;;;;;;14.25;59.66;102823.19;5018039;28;8530;-72
2021/12/17 00:55:31;;;;;;;;;;;;;;;14.27;59.08;102828.47;4996751;28;6816;-72
2021/12/17 00:57:57;;;;;;;;;;;;;;;14.28;58.97;102823.41;5015066;28;6791;-73
2021/12/17 01:00:24;;;;;;;;;;;;;;;14.28;59.49;102823.41;5017571;28;7004;-72
2021/12/17 01:02:52;;;;;;;;;;;;;;;14.29;59.55;102819.16;4999483;28;6804;-72
2021/12/17 01:05:26;;;;;;;;;;;;;;;14.29;58.73;102812.31;5017798;28;6792;-72
2021/12/17 01:07:56;;;;;;;;;;;;;;;14.28;59.30;102810.50;4989518;28;6888;-72
2021/12/17 01:10:36;;;;;;;;;;;;;;;14.29;59.80;102807.16;5014729;28;7019;-72
2021/12/17 01:13:07;;;;;;;;;;;;;;;14.32;58.99;102803.00;5007872;28;7016;-72
2021/12/17 01:15:34;;;;;;;;;;;;;;;14.30;59.24;102797.72;5016685;28;6831;-72
2021/12/17 01:18:05;;;;;;;;;;;;;;;14.32;59.31;102803.88;5014229;28;7095;-72
2021/12/17 01:25:51;;;;;;;;;;;;;;;14.32;58.78;102796.13;5003912;28;6811;-73
2021/12/17 01:36:42;;;;;;;;;;;;;;;14.35;59.41;102793.81;5010529;28;8243;-73
2021/12/17 01:42:06;;;;;;;;;;;;;;;14.38;59.68;102785.34;5004021;28;7156;-72
2021/12/17 01:44:36;;;;;;;;;;;;;;;14.38;59.28;102783.69;5006564;28;7438;-72
2021/12/17 01:47:06;;;;;;;;;;;;;;;14.39;59.55;102787.16;5002970;28;6816;-72
2021/12/17 02:00:27;;;;;;;;;;;;;;;14.39;59.04;102771.66;5020755;28;7238;-72
2021/12/17 02:02:58;;;;;;;;;;;;;;;14.40;59.67;102786.38;5013249;28;6883;-72
2021/12/17 02:05:24;;;;;;;;;;;;;;;14.41;59.10;102786.47;4997215;28;7098;-72
2021/12/17 02:07:53;;;;;;;;;;;;;;;14.42;59.14;102779.66;4998948;28;7316;-72
2021/12/17 02:21:49;;;;;;;;;;;;;;;14.39;59.25;102793.22;4999551;28;6876;-73
2021/12/17 02:30:02;;;;;;;;;;;;;;;14.38;59.65;102800.84;5014343;28;7214;-73
2021/12/17 02:32:29;;;;;;;;;;;;;;;14.39;59.30;102797.47;5002662;28;7427;-72
2021/12/17 02:35:21;;;;;;;;;;;;;;;14.40;59.17;102796.72;4980855;28;6879;-72
2021/12/17 02:37:49;;;;;;;;;;;;;;;14.39;59.13;102802.63;4996756;28;6867;-72
2021/12/17 02:45:37;;;;;;;;;;;;;;;14.38;58.80;102800.84;5007809;28;6939;-73
2021/12/17 02:48:14;;;;;;;;;;;;;;;14.38;58.88;102803.41;4999189;28;7197;-73
2021/12/17 02:50:56;;;;;;;;;;;;;;;14.38;59.20;102806.00;5018902;28;6796;-72
2021/12/17 02:53:24;;;;;;;;;;;;;;;14.38;58.71;102808.56;5012905;28;6835;-72
2021/12/17 02:55:56;;;;;;;;;;;;;;;14.38;58.76;102806.91;4997664;28;6971;-72
2021/12/17 02:58:28;;;;;;;;;;;;;;;14.40;59.66;102812.19;5020251;28;6824;-72
2021/12/17 03:00:55;;;;;;;;;;;;;;;14.40;58.94;102809.59;5007446;28;6816;-72
2021/12/17 03:03:27;;;;;;;;;;;;;;;14.41;58.79;102807.13;4982924;28;7791;-72
2021/12/17 03:05:54;;;;;;;;;;;;;;;14.43;59.54;102807.22;4998723;28;6896;-72
2021/12/17 03:08:20;;;;;;;;;;;;;;;14.43;59.34;102797.78;5000204;28;7055;-72
2021/12/17 03:10:48;;;;;;;;;;;;;;;14.45;59.27;102808.22;4997922;28;7179;-72
2021/12/17 03:13:22;;;;;;;;;;;;;;;14.46;58.83;102796.25;4997623;28;6819;-72
2021/12/17 03:15:57;;;;;;;;;;;;;;;14.46;59.94;102789.38;4980778;28;7256;-73
2021/12/17 03:23:51;;;;;;;;;;;;;;;14.36;59.19;102805.00;5014344;28;7158;-72
2021/12/17 03:26:26;;;;;;;;;;;;;;;14.28;59.42;102813.09;5014607;28;6787;-72
2021/12/17 03:28:58;;;;;;;;;;;;;;;14.24;58.80;102807.59;5013483;28;7971;-72
2021/12/17 03:31:25;;;;;;;;;;;;;;;14.22;59.24;102804.00;4983327;28;6872;-72
2021/12/17 03:34:05;;;;;;;;;;;;;;;14.18;59.34;102791.69;5014614;28;6791;-72
2021/12/17 03:36:31;;;;;;;;;;;;;;;14.18;59.25;102802.91;5001620;28;7217;-72
2021/12/17 03:38:57;;;;;;;;;;;;;;;14.20;59.85;102800.44;5014758;28;6804;-72
2021/12/17 03:41:34;;;;;;;;;;;;;;;14.19;59.31;102796.94;5017353;28;6862;-72
2021/12/17 03:44:00;;;;;;;;;;;;;;;14.19;60.13;102796.06;4999883;28;6903;-72
2021/12/17 03:46:26;;;;;;;;;;;;;;;14.18;60.32;102795.16;5016557;28;6880;-72
2021/12/17 03:48:52;;;;;;;;;;;;;;;14.18;59.79;102792.56;5015178;28;6871;-72
2021/12/17 03:51:19;;;;;;;;;;;;;;;14.19;59.69;102796.06;4988166;28;7060;-72
2021/12/17 03:53:55;;;;;;;;;;;;;;;14.19;59.77;102789.22;5013375;28;7003;-72
2021/12/17 03:56:23;;;;;;;;;;;;;;;14.18;59.30;102797.75;5014767;28;7058;-72
2021/12/17 03:58:51;;;;;;;;;;;;;;;14.19;59.74;102798.66;4998133;28;7204;-72
2021/12/17 04:01:17;;;;;;;;;;;;;;;14.16;59.32;102796.75;4981260;28;6987;-72
2021/12/17 04:03:43;;;;;;;;;;;;;;;14.16;59.56;102789.00;5008949;28;7409;-72
2021/12/17 04:06:09;;;;;;;;;;;;;;;14.13;59.96;102792.25;5014814;28;7112;-72
2021/12/17 04:08:35;;;;;;;;;;;;;;;14.12;59.95;102787.00;5015001;28;7157;-72
2021/12/17 04:11:08;;;;;;;;;;;;;;;14.11;60.29;102790.38;4982570;28;6982;-72
2021/12/17 04:13:38;;;;;;;;;;;;;;;14.10;59.80;102791.13;5013783;28;7031;-72
2021/12/17 04:16:09;;;;;;;;;;;;;;;14.09;60.20;102797.06;5016694;28;6808;-72
2021/12/17 04:18:40;;;;;;;;;;;;;;;14.08;59.82;102800.44;5014431;28;7199;-72
2021/12/17 04:21:13;;;;;;;;;;;;;;;14.06;59.54;102799.44;4998940;28;7129;-72
2021/12/17 04:23:41;;;;;;;;;;;;;;;14.01;60.38;102794.88;4985228;28;7875;-72
2021/12/17 04:26:06;;;;;;;;;;;;;;;13.99;60.23;102801.56;5015695;28;7031;-73
2021/12/17 04:28:32;;;;;;;;;;;;;;;14.01;60.65;102801.69;5015448;28;6964;-72
2021/12/17 04:30:58;;;;;;;;;;;;;;;13.99;59.78;102801.56;4999531;28;7042;-72
2021/12/17 04:33:24;;;;;;;;;;;;;;;13.98;60.04;102794.63;5016710;28;6792;-72
2021/12/17 04:35:50;;;;;;;;;;;;;;;13.98;60.07;102799.78;4999833;28;7033;-72
2021/12/17 04:38:16;;;;;;;;;;;;;;;13.97;60.80;102792.84;5011554;28;7157;-73
2021/12/17 04:43:32;;;;;;;;;;;;;;;13.97;60.01;102795.41;5709866;23;7886;-73
2021/12/17 04:59:21;;;;;;;;;;;;;;;13.97;59.91;102807.44;4975717;28;6835;-72
2021/12/17 05:01:48;;;;;;;;;;;;;;;13.97;60.64;102798.00;4944900;28;8303;-72
2021/12/17 05:04:13;;;;;;;;;;;;;;;13.98;60.59;102794.63;4975281;28;8334;-72
2021/12/17 05:06:39;;;;;;;;;;;;;;;13.96;60.29;102801.34;4978966;28;6779;-72
2021/12/17 05:09:19;;;;;;;;;;;;;;;13.93;60.70;102802.81;4974157;28;6802;-72
2021/12/17 05:19:49;;;;;;;;;;;;;;;13.80;60.52;102789.03;4973627;28;8080;-72
2021/12/17 05:22:17;;;;;;;;;;;;;;;13.79;60.23;102788.91;4978238;28;7011;-72
2021/12/17 05:24:43;;;;;;;;;;;;;;;13.78;60.56;102784.56;4974585;28;7217;-72
2021/12/17 05:27:09;;;;;;;;;;;;;;;13.78;60.13;102784.56;4928680;28;7019;-72
2021/12/17 05:29:35;;;;;;;;;;;;;;;13.77;60.88;102799.13;4975020;28;7193;-72
2021/12/17 05:32:01;;;;;;;;;;;;;;;13.78;60.47;102800.00;4978319;28;6808;-72
2021/12/17 05:34:27;;;;;;;;;;;;;;;13.78;60.46;102805.16;4948402;28;6949;-71
2021/12/17 05:36:53;;;;;;;;;;;;;;;13.76;60.12;102797.31;4978446;28;6860;-72
2021/12/17 05:39:18;;;;;;;;;;;;;;;13.77;60.14;102798.22;4958177;28;6972;-72
2021/12/17 05:41:45;;;;;;;;;;;;;;;13.77;60.25;102787.91;4982516;28;6937;-72
2021/12/17 05:44:14;;;;;;;;;;;;;;;13.77;60.15;102787.91;4980700;28;6784;-72
2021/12/17 05:46:49;;;;;;;;;;;;;;;13.77;60.74;102790.50;4976816;28;7199;-72
2021/12/17 05:49:22;;;;;;;;;;;;;;;13.76;60.21;102792.16;4965817;28;7385;-72
2021/12/17 05:51:48;;;;;;;;;;;;;;;13.74;61.16;102792.06;4958587;28;7085;-72
2021/12/17 05:54:16;;;;;;;;;;;;;;;13.75;61.09;102795.53;4962542;28;6860;-72
2021/12/17 05:56:42;;;;;;;;;;;;;;;13.73;60.03;102797.09;4962367;28;6811;-72
2021/12/17 05:59:08;;;;;;;;;;;;;;;13.71;61.00;102806.41;4961306;28;6800;-72
2021/12/17 06:01:34;;;;;;;;;;;;;;;13.69;59.97;102807.97;4953182;28;7239;-72
2021/12/17 06:04:00;;;;;;;;;;;;;;;13.65;60.97;102803.38;4952570;28;6804;-71
2021/12/17 06:06:34;;;;;;;;;;;;;;;13.63;61.32;102803.28;4940208;28;6788;-72
2021/12/17 06:09:03;;;;;;;;;;;;;;;13.62;61.33;102806.63;4936796;28;6891;-72
2021/12/17 06:11:29;;;;;;;;;;;;;;;13.64;60.46;102804.16;4955509;28;6904;-72
2021/12/17 06:13:55;;;;;;;;;;;;;;;13.63;60.89;102808.44;4958623;28;6883;-72
2021/12/17 06:16:20;;;;;;;;;;;;;;;13.61;60.47;102807.38;4956824;28;6811;-72
2021/12/17 06:18:46;;;;;;;;;;;;;;;13.59;61.22;102814.13;4958418;28;6894;-72
2021/12/17 06:21:12;;;;;;;;;;;;;;;13.55;60.91;102813.00;4954371;28;6932;-72
2021/12/17 06:23:38;;;;;;;;;;;;;;;13.52;60.37;102807.63;4963648;28;6816;-73
2021/12/17 06:26:05;;;;;;;;;;;;;;;13.49;60.55;102806.50;4933595;28;6993;-72
2021/12/17 06:28:30;;;;;;;;;;;;;;;13.46;61.24;102802.00;4979200;28;7027;-72
2021/12/17 06:30:56;;;;;;;;;;;;;;;13.44;60.63;102806.09;4954848;28;6780;-72
2021/12/17 06:33:22;;;;;;;;;;;;;;;13.44;60.90;102811.25;4934534;28;7943;-72
2021/12/17 06:35:47;;;;;;;;;;;;;;;13.45;61.57;102811.44;4970332;28;6875;-72
2021/12/17 06:38:13;;;;;;;;;;;;;;;13.46;61.84;102808.06;4957966;28;7030;-72
2021/12/17 06:40:39;;;;;;;;;;;;;;;13.46;60.82;102808.06;4937484;28;7843;-72
2021/12/17 06:43:04;;;;;;;;;;;;;;;13.46;61.25;102815.78;4961666;28;6791;-72
2021/12/17 06:45:50;;;;;;;;;;;;;;;13.45;61.13;102816.56;4958161;28;6788;-72
2021/12/17 06:48:21;;;;;;;;;;;;;;;13.44;61.43;102827.66;4959542;28;7219;-72
2021/12/17 07:17:41;;;;;;;;;;;;;;;13.10;61.83;102829.34;4960281;28;6892;-71
2021/12/17 07:23:15;;;;;;;;;;;;;;;13.09;61.89;102836.16;4959915;28;7460;-72
2021/12/17 07:28:51;;;;;;;;;;;;;;;13.06;62.31;102836.78;4963844;28;6888;-72
2021/12/17 07:34:09;;;;;;;;;;;;;;;13.07;61.84;102829.97;4959399;28;7038;-72
2021/12/17 07:36:41;;;;;;;;;;;;;;;13.09;61.95;102831.00;4936242;28;6994;-72
2021/12/17 07:39:08;;;;;;;;;;;;;;;13.11;62.37;102837.16;4961680;28;6812;-72
2021/12/17 07:41:35;;;;;;;;;;;;;;;13.14;62.10;102833.91;4964718;28;6808;-72
2021/12/17 07:44:02;;;;;;;;;;;;;;;13.15;61.57;102834.03;4964648;28;6876;-72
2021/12/17 07:46:28;;;;;;;;;;;;;;;13.18;61.72;102836.84;4952560;28;7230;-72
2021/12/17 07:48:55;;;;;;;;;;;;;;;13.18;61.80;102839.41;4962676;28;6829;-72
2021/12/17 07:51:23;;;;;;;;;;;;;;;13.17;61.86;102839.28;4962595;28;7015;-72
2021/12/17 07:53:50;;;;;;;;;;;;;;;13.14;61.94;102839.97;4965372;28;6975;-72
2021/12/17 07:56:21;;;;;;;;;;;;;;;13.14;61.96;102842.56;4962567;28;6815;-72
2021/12/17 07:58:47;;;;;;;;;;;;;;;13.14;61.82;102841.66;4964990;28;7215;-72
2021/12/17 08:01:13;;;;;;;;;;;;;;;13.13;61.68;102839.84;4965426;28;6784;-71
2021/12/17 08:03:40;;;;;;;;;;;;;;;13.11;62.37;102839.72;4949277;28;6800;-72
2021/12/17 08:06:07;;;;;;;;;;;;;;;13.12;61.78;102835.50;4958188;28;6808;-72
2021/12/17 08:08:33;;;;;;;;;;;;;;;13.14;62.50;102839.06;4964501;28;7711;-72
2021/12/17 08:10:59;;;;;;;;;;;;;;;13.17;62.37;102839.28;4940378;28;6977;-72
2021/12/17 08:13:29;;;;;;;;;;;;;;;13.18;62.28;102836.84;4968150;28;6784;-72
2021/12/17 08:16:18;;;;;;;;;;;;;;;13.20;61.63;102840.44;4966903;28;6800;-72
2021/12/17 08:24:46;;;;;;;;;;;;;;;13.10;61.51;102835.34;4968340;28;6861;-72
2021/12/17 08:27:11;;;;;;;;;;;;;;;13.05;62.04;102839.28;4968726;28;6823;-72
2021/12/17 08:32:28;;;;;;;;;;;;;;;12.94;62.19;102842.66;4949280;28;6820;-71
2021/12/17 08:34:54;;;;;;;;;;;;;;;12.92;62.41;102840.88;4980370;28;6819;-71
2021/12/17 08:37:20;;;;;;;;;;;;;;;12.89;61.92;102838.09;4972538;28;6807;-72
2021/12/17 08:39:46;;;;;;;;;;;;;;;12.89;62.19;102844.88;4971934;28;6864;-72
2021/12/17 08:42:12;;;;;;;;;;;;;;;12.91;62.72;102851.06;4970884;28;6792;-72
2021/12/17 08:44:37;;;;;;;;;;;;;;;12.91;62.32;102851.97;4973784;28;8330;-71
2021/12/17 08:47:05;;;;;;;;;;;;;;;12.92;62.60;102861.47;4970968;28;6799;-72
2021/12/17 08:49:32;;;;;;;;;;;;;;;12.93;61.77;102854.66;4958975;28;6985;-72
2021/12/17 08:51:58;;;;;;;;;;;;;;;12.90;62.51;102868.19;4956403;28;7292;-71
2021/12/17 08:54:23;;;;;;;;;;;;;;;12.89;62.55;102865.47;4939996;28;6971;-71
2021/12/17 08:56:50;;;;;;;;;;;;;;;12.88;62.45;102879.13;4971415;28;6800;-72
2021/12/17 08:59:17;;;;;;;;;;;;;;;12.84;61.70;102879.69;4955845;28;7204;-72
2021/12/17 09:01:45;;;;;;;;;;;;;;;12.83;62.50;102877.88;4957568;28;7019;-72
2021/12/17 09:04:11;;;;;;;;;;;;;;;12.84;62.25;102874.53;4972376;28;6896;-71
2021/12/17 09:06:37;;;;;;;;;;;;;;;12.83;62.60;102873.63;4955335;28;6792;-72
2021/12/17 09:09:04;;;;;;;;;;;;;;;12.86;62.48;102884.19;4938867;28;6838;-72
2021/12/17 09:11:31;;;;;;;;;;;;;;;12.89;62.85;102884.41;4969878;28;6895;-73
2021/12/17 09:14:00;;;;;;;;;;;;;;;12.91;62.60;102888.00;4926664;28;7378;-72
2021/12/17 09:16:27;;;;;;;;;;;;;;;12.94;61.91;102889.91;4971507;28;6812;-72
2021/12/17 09:18:55;;;;;;;;;;;;;;;12.94;62.11;102894.16;4956218;28;6792;-72
2021/12/17 09:21:21;;;;;;;;;;;;;;;12.91;62.52;102895.72;4973177;28;6800;-71
2021/12/17 09:23:47;;;;;;;;;;;;;;;12.88;62.43;102899.72;4975498;28;7011;-72
2021/12/17 09:26:15;;;;;;;;;;;;;;;12.86;61.80;102902.19;4953293;28;6926;-72
2021/12/17 09:28:42;;;;;;;;;;;;;;;12.83;62.51;102898.47;4975232;28;6808;-72
2021/12/17 09:31:12;;;;;;;;;;;;;;;12.84;62.51;102893.44;4938877;28;7516;-72
2021/12/17 09:33:45;;;;;;;;;;;;;;;12.84;61.66;102900.28;4969316;28;7016;-72
2021/12/17 09:36:11;;;;;;;;;;;;;;;12.83;61.90;102901.06;4955912;28;6812;-72
2021/12/17 09:38:37;;;;;;;;;;;;;;;12.81;62.20;102895.78;4976113;28;6892;-72
2021/12/17 09:41:05;;;;;;;;;;;;;;;12.80;62.31;102901.69;4932552;28;8816;-72
2021/12/17 09:43:32;;;;;;;;;;;;;;;12.80;61.86;102904.28;4961301;28;7251;-72
2021/12/17 09:45:59;;;;;;;;;;;;;;;12.80;62.71;102911.13;4963258;28;6804;-72
2021/12/17 09:48:25;;;;;;;;;;;;;;;12.79;62.42;102912.78;4952723;28;6990;-72
2021/12/17 09:50:52;;;;;;;;;;;;;;;12.79;62.99;102920.50;4950801;28;7209;-72
2021/12/17 09:53:19;;;;;;;;;;;;;;;12.82;62.05;102917.28;4955606;28;6963;-72
2021/12/17 09:55:45;;;;;;;;;;;;;;;12.85;62.40;102918.41;4961025;28;6895;-72
2021/12/17 09:58:11;;;;;;;;;;;;;;;12.87;61.95;102911.72;4939236;28;7336;-72
2021/12/17 10:00:37;;;;;;;;;;;;;;;12.90;62.51;102916.22;4957678;28;6800;-72
2021/12/17 10:03:08;;;;;;;;;;;;;;;12.91;61.91;102925.72;4962752;28;6808;-72
2021/12/17 10:05:38;;;;;;;;;;;;;;;12.92;62.25;102915.53;4957539;28;7261;-72
2021/12/17 10:08:13;;;;;;;;;;;;;;;12.95;62.78;102914.88;4963368;28;8551;-72
2021/12/17 10:10:43;;;;;;;;;;;;;;;12.98;62.38;102924.53;4950576;28;6985;-72
2021/12/17 10:13:22;;;;;;;;;;;;;;;13.00;62.39;102920.38;4971373;28;7912;-72
2021/12/17 10:15:55;;;;;;;;;;;;;;;13.02;62.71;102921.41;4958975;28;7929;-72
2021/12/17 10:18:39;;;;;;;;;;;;;;;13.06;62.89;102919.19;4961158;28;7248;-72
2021/12/17 10:21:09;;;;;;;;;;;;;;;13.09;62.75;102921.09;4960925;28;6796;-72
2021/12/17 10:23:37;;;;;;;;;;;;;;;13.09;62.07;102918.53;4947231;28;6800;-72
2021/12/17 10:26:04;;;;;;;;;;;;;;;13.11;62.70;102928.97;4960640;28;6808;-72
2021/12/17 10:28:30;;;;;;;;;;;;;;;13.11;62.47;102929.84;4957060;28;6824;-72
2021/12/17 10:30:57;;;;;;;;;;;;;;;13.13;62.73;102925.69;4961471;28;7211;-72
2021/12/17 10:33:28;;;;;;;;;;;;;;;13.12;62.28;102916.19;4952964;28;7019;-72
2021/12/17 10:36:00;;;;;;;;;;;;;;;13.14;62.29;102919.81;4957342;28;7023;-72
2021/12/17 10:38:26;;;;;;;;;;;;;;;13.14;62.67;102912.09;4961538;28;7872;-72
2021/12/17 10:41:05;;;;;;;;;;;;;;;13.12;61.86;102918.75;4952745;28;7132;-72
2021/12/17 10:43:37;;;;;;;;;;;;;;;13.11;61.54;102914.38;4956467;28;6880;-72
2021/12/17 10:46:28;;;;;;;;;;;;;;;13.08;62.66;102918.41;4962822;28;7213;-72
2021/12/17 10:49:12;;;;;;;;;;;;;;;13.05;61.96;102917.38;4968450;28;7007;-72
2021/12/17 10:54:09;;;;;;;;;;;;;;;13.06;62.01;102913.16;4937494;28;7489;-72
2021/12/17 10:56:51;;;;;;;;;;;;;;;13.06;62.27;102910.59;4938798;28;7008;-72
2021/12/17 10:59:22;;;;;;;;;;;;;;;13.06;62.86;102911.47;4961308;28;6815;-72
2021/12/17 11:02:12;;;;;;;;;;;;;;;13.08;61.73;102910.69;4937079;28;6997;-72
2021/12/17 11:04:43;;;;;;;;;;;;;;;13.08;62.59;102905.53;4950679;28;7035;-73
2021/12/17 11:07:16;;;;;;;;;;;;;;;13.10;62.88;102909.16;4972619;28;6824;-72
2021/12/17 11:09:54;;;;;;;;;;;;;;;13.11;61.93;102903.22;4951491;28;6820;-72
2021/12/17 11:12:22;;;;;;;;;;;;;;;13.11;63.06;102906.66;4953926;28;8087;-72
2021/12/17 11:14:49;;;;;;;;;;;;;;;13.14;62.10;102904.34;4973684;28;6808;-72
2021/12/17 11:17:20;;;;;;;;;;;;;;;13.17;61.91;102907.16;4961639;28;6983;-72
2021/12/17 11:19:54;;;;;;;;;;;;;;;13.16;61.69;102900.22;4951353;28;7001;-72
2021/12/17 11:22:23;;;;;;;;;;;;;;;13.15;62.06;102893.28;4949744;28;6808;-72
2021/12/17 11:24:50;;;;;;;;;;;;;;;13.15;61.98;102897.50;4966034;28;7012;-72
2021/12/17 11:27:16;;;;;;;;;;;;;;;13.13;61.68;102899.94;4936092;28;6980;-72
2021/12/17 11:29:43;;;;;;;;;;;;;;;13.11;62.22;102896.38;4959713;28;6803;-72
2021/12/17 11:32:09;;;;;;;;;;;;;;;13.12;62.08;102885.28;4955105;28;7078;-72
2021/12/17 11:34:34;;;;;;;;;;;;;;;13.15;62.77;102901.00;4935526;28;6970;-72
2021/12/17 11:37:03;;;;;;;;;;;;;;;13.16;62.68;102900.22;4938513;28;6780;-72
2021/12/17 11:39:33;;;;;;;;;;;;;;;13.17;62.03;102896.84;4936406;28;7033;-72
2021/12/17 11:42:29;;;;;;;;;;;;;;;13.19;62.15;102899.56;4948366;28;6891;-72
2021/12/17 11:47:47;;;;;;;;;;;;;;;13.19;62.11;102895.28;4955969;28;6978;-75
2021/12/17 11:50:18;;;;;;;;;;;;;;;13.20;61.91;102891.06;4961839;28;6800;-74
2021/12/17 11:52:52;;;;;;;;;;;;;;;13.20;62.03;102888.47;4962795;28;7232;-72
2021/12/17 11:55:20;;;;;;;;;;;;;;;13.19;61.86;102887.56;4963143;28;8273;-72
2021/12/17 11:57:49;;;;;;;;;;;;;;;13.18;61.84;102893.50;4963634;28;7219;-72
2021/12/17 12:00:21;;;;;;;;;;;;;;;13.18;62.38;102896.06;4942012;28;6812;-72
2021/12/17 12:02:56;;;;;;;;;;;;;;;13.16;61.65;102894.16;4948945;28;6891;-72
2021/12/17 12:05:40;;;;;;;;;;;;;;;13.15;63.13;102887.22;4962048;28;6816;-72
2021/12/17 12:08:50;;;;;;;;;;;;;;;13.14;62.33;102881.19;4937786;28;6908;-72
2021/12/17 12:11:21;;;;;;;;;;;;;;;13.13;63.17;102876.78;4957381;28;6820;-72
2021/12/17 12:13:50;;;;;;;;;;;;;;;13.15;62.74;102877.81;4958308;28;6812;-72
2021/12/17 12:16:28;;;;;;;;;;;;;;;13.19;62.18;102884.13;4961710;28;7202;-72
2021/12/17 12:19:05;;;;;;;;;;;;;;;13.22;62.63;102881.75;4958086;28;6804;-72
2021/12/17 12:21:37;;;;;;;;;;;;;;;13.22;62.89;102878.28;4960205;28;6812;-72
2021/12/17 12:24:16;;;;;;;;;;;;;;;13.22;62.35;102871.47;4955502;28;6880;-72
2021/12/17 12:26:49;;;;;;;;;;;;;;;13.25;62.07;102866.53;4967004;28;7108;-72
2021/12/17 12:29:24;;;;;;;;;;;;;;;13.27;62.21;102875.25;4960646;28;6891;-72
2021/12/17 12:31:56;;;;;;;;;;;;;;;13.30;62.47;102874.63;4966605;28;7195;-72
2021/12/17 12:34:36;;;;;;;;;;;;;;;13.34;62.41;102876.66;4956717;28;6800;-73
2021/12/17 12:37:08;;;;;;;;;;;;;;;13.33;63.02;102874.88;4961145;28;6816;-72
2021/12/17 12:40:03;;;;;;;;;;;;;;;13.32;62.00;102867.91;4964657;28;8326;-72
2021/12/17 12:42:35;;;;;;;;;;;;;;;13.33;62.77;102869.72;4960024;28;6824;-72
2021/12/17 12:45:02;;;;;;;;;;;;;;;13.33;62.39;102867.16;4960126;28;6808;-72
2021/12/17 12:47:31;;;;;;;;;;;;;;;13.34;62.19;102864.66;4967475;28;6800;-72
2021/12/17 12:50:08;;;;;;;;;;;;;;;13.35;62.51;102860.41;4963948;28;6900;-73
2021/12/17 12:52:45;;;;;;;;;;;;;;;13.36;62.20;102862.22;4980152;28;6815;-72
2021/12/17 12:55:25;;;;;;;;;;;;;;;13.34;62.03;102859.50;4965315;28;7161;-72
2021/12/17 12:58:05;;;;;;;;;;;;;;;13.34;62.11;102862.09;4961415;28;7415;-72
2021/12/17 13:00:41;;;;;;;;;;;;;;;13.35;61.88;102863.00;4957567;28;6808;-72
2021/12/17 13:03:15;;;;;;;;;;;;;;;13.33;62.72;102867.16;4958066;28;7286;-72
2021/12/17 13:05:45;;;;;;;;;;;;;;;13.30;61.88;102861.72;4964991;28;7169;-72
2021/12/17 13:08:12;;;;;;;;;;;;;;;13.30;62.79;102866.88;4964898;28;6963;-72
2021/12/17 13:10:59;;;;;;;;;;;;;;;13.28;62.43;102865.88;4966989;28;6971;-72
2021/12/17 13:13:42;;;;;;;;;;;;;;;13.26;62.14;102870.03;4956035;28;6884;-72
2021/12/17 13:24:32;;;;;;;;;;;;;;;13.24;62.84;102853.56;4976076;28;7883;-72
2021/12/17 13:27:11;;;;;;;;;;;;;;;13.23;62.23;102850.06;4960948;28;6997;-72
2021/12/17 13:29:43;;;;;;;;;;;;;;;13.24;62.75;102861.28;4971973;28;7020;-72
2021/12/17 13:32:16;;;;;;;;;;;;;;;13.24;61.87;102851.88;4944816;28;6808;-72
2021/12/17 13:34:49;;;;;;;;;;;;;;;13.24;62.67;102856.13;4961049;28;6808;-72
2021/12/17 13:37:30;;;;;;;;;;;;;;;13.25;62.35;102852.78;4973642;28;7233;-72
2021/12/17 13:40:03;;;;;;;;;;;;;;;13.24;62.17;102853.56;4986049;28;7030;-72
2021/12/17 13:42:34;;;;;;;;;;;;;;;13.24;62.91;102851.88;4973906;28;6804;-72
2021/12/17 13:45:08;;;;;;;;;;;;;;;13.22;62.95;102855.09;4958197;28;6955;-72
2021/12/17 13:47:48;;;;;;;;;;;;;;;13.21;62.70;102856.78;4991371;28;7633;-72
2021/12/17 13:50:45;;;;;;;;;;;;;;;13.18;62.30;102857.44;4975658;28;6990;-72
2021/12/17 13:53:17;;;;;;;;;;;;;;;13.15;63.04;102852.06;4970525;28;6820;-72
2021/12/17 13:55:49;;;;;;;;;;;;;;;13.17;62.76;102850.50;4972338;28;6972;-72
2021/12/17 13:58:20;;;;;;;;;;;;;;;13.17;63.24;102850.50;4973490;28;7257;-72
2021/12/17 14:00:52;;;;;;;;;;;;;;;13.18;63.13;102853.97;4960213;28;7427;-72
2021/12/17 14:03:27;;;;;;;;;;;;;;;13.19;62.65;102858.38;4990474;28;6803;-72
2021/12/17 14:06:11;;;;;;;;;;;;;;;13.19;62.84;102854.09;4960035;28;6843;-72
2021/12/17 14:08:41;;;;;;;;;;;;;;;13.17;63.27;102855.66;4963214;28;6820;-72
2021/12/17 14:11:27;;;;;;;;;;;;;;;13.17;62.06;102853.09;4957303;28;6799;-72
2021/12/17 14:13:53;;;;;;;;;;;;;;;13.15;62.38;102852.06;4957141;28;6896;-72
2021/12/17 14:16:33;;;;;;;;;;;;;;;13.14;62.29;102847.72;4976135;28;7230;-72
2021/12/17 14:19:02;;;;;;;;;;;;;;;13.14;62.28;102845.13;4974811;28;6816;-72
2021/12/17 14:21:30;;;;;;;;;;;;;;;13.14;62.18;102846.78;4957682;28;7201;-72
2021/12/17 14:23:57;;;;;;;;;;;;;;;13.12;62.72;102838.94;4953221;28;6845;-73
2021/12/17 14:26:30;;;;;;;;;;;;;;;13.14;63.11;102842.56;4958943;28;6872;-72
2021/12/17 14:29:09;;;;;;;;;;;;;;;13.15;63.17;102843.44;4942278;28;6880;-72
2021/12/17 14:31:35;;;;;;;;;;;;;;;13.13;63.09;102845.88;4971841;28;6812;-72
2021/12/17 14:34:01;;;;;;;;;;;;;;;13.12;62.89;102841.50;4975091;28;6958;-72
2021/12/17 14:36:38;;;;;;;;;;;;;;;13.12;62.97;102844.09;4961501;28;6783;-72
2021/12/17 14:39:15;;;;;;;;;;;;;;;13.11;62.65;102847.44;4954532;28;6807;-72
2021/12/17 14:41:56;;;;;;;;;;;;;;;13.11;62.35;102839.72;4976300;28;6816;-72
2021/12/17 14:47:21;;;;;;;;;;;;;;;13.06;63.21;102843.66;4953365;28;7215;-71
2021/12/17 15:00:58;;;;;;;;;;;;;;;12.98;62.95;102848.19;4961010;28;6888;-72
2021/12/17 15:05:55;;;;;;;;;;;;;;;12.99;63.40;102855.16;4950493;28;6804;-72
2021/12/17 15:08:21;;;;;;;;;;;;;;;12.99;62.90;102849.09;4975431;28;6808;-72
2021/12/17 15:10:47;;;;;;;;;;;;;;;13.01;63.69;102850.09;4947930;28;7051;-72
2021/12/17 15:13:14;;;;;;;;;;;;;;;13.01;62.75;102844.94;4953176;28;6952;-72
2021/12/17 15:15:41;;;;;;;;;;;;;;;13.02;62.72;102849.31;4943256;28;7005;-72
2021/12/17 15:18:15;;;;;;;;;;;;;;;13.02;62.51;102851.88;4953463;28;7222;-72
2021/12/17 15:20:48;;;;;;;;;;;;;;;13.00;63.44;102846.66;4951901;28;6864;-72
2021/12/17 15:23:15;;;;;;;;;;;;;;;12.98;62.92;102848.19;4951962;28;7904;-72
2021/12/17 15:25:42;;;;;;;;;;;;;;;12.98;62.76;102847.28;4950383;28;6982;-72
2021/12/17 15:28:11;;;;;;;;;;;;;;;12.97;62.47;102851.53;4956446;28;6880;-72
2021/12/17 15:30:47;;;;;;;;;;;;;;;12.98;62.99;102852.44;4956168;28;6804;-72
2021/12/17 15:33:15;;;;;;;;;;;;;;;12.97;63.60;102846.38;4921294;28;7248;-72
2021/12/17 15:35:43;;;;;;;;;;;;;;;12.97;62.75;102842.94;4965960;28;7110;-72
2021/12/17 15:38:10;;;;;;;;;;;;;;;12.96;63.74;102842.03;4956516;28;6954;-72
2021/12/17 15:40:38;;;;;;;;;;;;;;;12.96;62.61;102846.28;4956309;28;6816;-72
2021/12/17 15:43:05;;;;;;;;;;;;;;;12.96;62.97;102848.88;4952925;28;6995;-72
2021/12/17 15:45:39;;;;;;;;;;;;;;;12.96;62.43;102852.31;4961843;28;7733;-72
2021/12/17 15:48:10;;;;;;;;;;;;;;;12.96;63.44;102852.31;4969852;28;6980;-72
2021/12/17 15:50:36;;;;;;;;;;;;;;;12.96;63.22;102849.75;4949915;28;6884;-72
2021/12/17 15:53:03;;;;;;;;;;;;;;;12.95;63.10;102847.06;4953995;28;6812;-73
2021/12/17 15:55:30;;;;;;;;;;;;;;;12.93;62.84;102849.50;4933979;28;7007;-72
2021/12/17 15:57:57;;;;;;;;;;;;;;;12.92;62.60;102864.03;4973629;28;6951;-72
2021/12/17 16:00:33;;;;;;;;;;;;;;;12.92;63.51;102858.91;4952527;28;6887;-72
2021/12/17 16:03:01;;;;;;;;;;;;;;;12.92;62.69;102858.91;4933293;28;6820;-72
2021/12/17 16:05:27;;;;;;;;;;;;;;;12.92;63.49;102861.47;4962610;28;6894;-72
2021/12/17 16:07:54;;;;;;;;;;;;;;;12.91;62.77;102859.69;4953255;28;6888;-72
2021/12/17 16:21:04;;;;;;;;;;;;;;;12.79;62.72;102863.88;4933425;28;7253;-72
2021/12/17 16:23:39;;;;;;;;;;;;;;;12.78;63.67;102869.81;4954061;28;7062;-72